createdAt,value
2018-04-16T00:00:46.336Z,0.00
2018-04-16T00:01:46.301Z,0.00
2018-04-16T00:02:46.290Z,0.00
2018-04-16T00:03:46.292Z,0.00
2018-04-16T00:04:46.278Z,0.00
2018-04-16T00:05:46.283Z,0.00
2018-04-16T00:06:46.290Z,0.00
2018-04-16T00:07:46.329Z,0.00
2018-04-16T00:08:46.306Z,0.00
2018-04-16T00:09:46.293Z,0.00
2018-04-16T00:10:46.298Z,0.00
2018-04-16T00:11:46.301Z,0.00
2018-04-16T00:12:46.316Z,0.00
2018-04-16T00:13:46.326Z,0.00
2018-04-16T00:14:46.298Z,0.00
2018-04-16T00:15:46.303Z,0.00
2018-04-16T00:16:46.325Z,0.00
2018-04-16T00:17:46.313Z,0.00
2018-04-16T00:18:46.318Z,0.00
2018-04-16T00:19:46.306Z,0.00
2018-04-16T00:20:46.317Z,0.00
2018-04-16T00:21:46.302Z,0.00
2018-04-16T00:22:46.311Z,0.00
2018-04-16T00:23:46.323Z,0.00
2018-04-16T00:24:46.317Z,0.00
2018-04-16T00:25:47.078Z,0.00
2018-04-16T00:26:48.149Z,0.00
2018-04-16T00:27:46.356Z,0.00
2018-04-16T00:28:46.340Z,0.00
2018-04-16T00:29:46.352Z,0.00
2018-04-16T00:30:46.336Z,0.00
2018-04-16T00:31:46.346Z,0.00
2018-04-16T00:32:46.363Z,0.00
2018-04-16T00:33:46.361Z,0.00
2018-04-16T00:34:46.370Z,0.00
2018-04-16T00:35:48.137Z,0.00
2018-04-16T00:36:46.389Z,0.00
2018-04-16T00:37:46.354Z,0.00
2018-04-16T00:38:46.403Z,0.00
2018-04-16T00:39:46.359Z,0.00
2018-04-16T00:40:46.375Z,0.00
2018-04-16T00:41:46.378Z,0.00
2018-04-16T00:42:46.374Z,0.00
2018-04-16T00:43:46.369Z,0.00
2018-04-16T00:44:46.375Z,0.00
2018-04-16T00:45:46.391Z,0.00
2018-04-16T00:46:46.390Z,0.00
2018-04-16T00:47:46.378Z,0.00
2018-04-16T00:48:46.388Z,0.00
2018-04-16T00:49:46.374Z,0.00
2018-04-16T00:50:46.387Z,0.00
2018-04-16T00:51:46.398Z,0.00
2018-04-16T00:52:46.394Z,0.00
2018-04-16T00:53:46.393Z,0.00
2018-04-16T00:54:48.160Z,0.00
2018-04-16T00:55:46.428Z,0.00
2018-04-16T00:56:46.433Z,0.00
2018-04-16T00:57:46.472Z,0.00
2018-04-16T00:58:46.412Z,0.00
2018-04-16T00:59:46.400Z,0.00
2018-04-16T01:00:46.458Z,0.00
2018-04-16T01:01:47.086Z,0.00
2018-04-16T01:02:46.410Z,0.00
2018-04-16T01:03:46.427Z,0.00
2018-04-16T01:04:46.432Z,0.00
2018-04-16T01:05:46.506Z,0.00
2018-04-16T01:06:47.088Z,0.00
2018-04-16T01:07:46.429Z,0.00
2018-04-16T01:08:46.437Z,0.00
2018-04-16T01:09:46.433Z,0.00
2018-04-16T01:10:46.445Z,0.00
2018-04-16T01:11:46.427Z,0.00
2018-04-16T01:12:46.450Z,0.00
2018-04-16T01:13:46.463Z,0.00
2018-04-16T01:14:48.155Z,0.00
2018-04-16T01:15:46.451Z,0.00
2018-04-16T01:16:46.445Z,0.00
2018-04-16T01:17:46.455Z,0.00
2018-04-16T01:18:46.449Z,0.00
2018-04-16T01:19:46.545Z,0.00
2018-04-16T01:20:46.465Z,0.00
2018-04-16T01:21:46.488Z,0.00
2018-04-16T01:22:46.471Z,0.00
2018-04-16T01:23:46.500Z,0.00
2018-04-16T01:24:46.463Z,0.00
2018-04-16T01:25:46.480Z,0.00
2018-04-16T01:26:46.459Z,0.00
2018-04-16T01:27:46.499Z,0.00
2018-04-16T01:28:46.521Z,0.00
2018-04-16T01:29:46.477Z,0.00
2018-04-16T01:30:46.479Z,0.00
2018-04-16T01:31:46.516Z,0.00
2018-04-16T01:32:46.486Z,0.00
2018-04-16T01:33:46.496Z,0.00
2018-04-16T01:34:46.505Z,0.00
2018-04-16T01:35:46.508Z,0.00
2018-04-16T01:36:46.500Z,0.00
2018-04-16T01:37:46.519Z,0.00
2018-04-16T01:38:46.518Z,0.00
2018-04-16T01:39:48.166Z,0.00
2018-04-16T01:40:46.503Z,0.00
2018-04-16T01:41:46.515Z,0.00
2018-04-16T01:42:46.528Z,0.00
2018-04-16T01:43:46.536Z,0.00
2018-04-16T01:44:46.536Z,0.00
2018-04-16T01:45:46.532Z,0.00
2018-04-16T01:46:46.526Z,0.00
2018-04-16T01:47:46.536Z,0.00
2018-04-16T01:48:46.515Z,0.00
2018-04-16T01:49:46.538Z,0.00
2018-04-16T01:50:46.546Z,0.00
2018-04-16T01:51:46.535Z,0.00
2018-04-16T01:52:46.549Z,0.00
2018-04-16T01:53:46.576Z,0.00
2018-04-16T01:54:46.554Z,0.00
2018-04-16T01:55:46.572Z,0.00
2018-04-16T01:56:46.557Z,0.00
2018-04-16T01:57:46.559Z,0.00
2018-04-16T01:58:46.561Z,0.00
2018-04-16T01:59:46.551Z,0.00
2018-04-16T02:00:46.603Z,0.00
2018-04-16T02:01:46.548Z,0.00
2018-04-16T02:02:46.587Z,0.00
2018-04-16T02:03:46.597Z,0.00
2018-04-16T02:04:46.557Z,0.00
2018-04-16T02:05:50.104Z,0.00
2018-04-16T02:06:48.177Z,0.00
2018-04-16T02:07:46.569Z,0.00
2018-04-16T02:08:46.560Z,0.00
2018-04-16T02:09:46.579Z,0.00
2018-04-16T02:10:46.599Z,0.00
2018-04-16T02:11:46.572Z,0.00
2018-04-16T02:12:46.584Z,0.00
2018-04-16T02:13:46.586Z,0.00
2018-04-16T02:14:46.598Z,0.00
2018-04-16T02:15:46.605Z,0.00
2018-04-16T02:16:46.595Z,0.00
2018-04-16T02:17:46.606Z,0.00
2018-04-16T02:18:46.583Z,0.00
2018-04-16T02:19:46.608Z,0.00
2018-04-16T02:20:46.590Z,0.00
2018-04-16T02:21:46.598Z,0.00
2018-04-16T02:22:46.603Z,0.00
2018-04-16T02:23:46.595Z,0.00
2018-04-16T02:24:46.606Z,0.00
2018-04-16T02:25:46.602Z,0.00
2018-04-16T02:26:46.629Z,0.00
2018-04-16T02:27:46.612Z,0.00
2018-04-16T02:28:46.614Z,0.00
2018-04-16T02:29:46.636Z,0.00
2018-04-16T02:30:46.616Z,0.00
2018-04-16T02:31:46.622Z,0.00
2018-04-16T02:32:46.614Z,0.00
2018-04-16T02:33:46.626Z,0.00
2018-04-16T02:34:46.629Z,0.00
2018-04-16T02:35:46.646Z,0.00
2018-04-16T02:36:46.646Z,0.00
2018-04-16T02:37:46.640Z,0.00
2018-04-16T02:38:49.181Z,0.00
2018-04-16T02:39:46.787Z,0.00
2018-04-16T02:45:20.559Z,0.00
2018-04-16T02:46:22.371Z,0.00
2018-04-16T02:47:23.375Z,0.00
2018-04-16T02:50:25.596Z,0.00
2018-04-16T02:51:21.291Z,0.00
2018-04-16T02:52:21.989Z,0.00
2018-04-16T02:53:22.643Z,0.00
2018-04-16T02:54:22.531Z,0.00
2018-04-16T02:55:23.976Z,0.00
2018-04-16T02:56:23.638Z,0.00
2018-04-16T02:57:23.703Z,0.00
2018-04-16T02:58:22.549Z,0.00
2018-04-16T02:59:23.252Z,0.00
2018-04-16T03:00:23.014Z,0.00
2018-04-16T03:01:20.342Z,0.00
2018-04-16T03:02:26.594Z,0.00
2018-04-16T03:03:21.596Z,0.00
2018-04-16T03:04:22.506Z,0.00
2018-04-16T03:05:21.978Z,0.00
2018-04-16T03:06:20.961Z,0.00
2018-04-16T03:07:24.297Z,0.00
2018-04-16T03:08:23.109Z,0.00
2018-04-16T03:09:22.263Z,0.00
2018-04-16T03:10:22.343Z,0.00
2018-04-16T03:11:20.916Z,0.00
2018-04-16T03:12:21.858Z,0.00
2018-04-16T03:13:21.261Z,0.00
2018-04-16T03:14:23.409Z,0.00
2018-04-16T03:15:22.754Z,0.00
2018-04-16T03:16:23.236Z,0.00
2018-04-16T03:17:19.586Z,0.00
2018-04-16T03:18:20.284Z,0.00
2018-04-16T03:19:21.091Z,0.00
2018-04-16T03:20:22.898Z,0.00
2018-04-16T03:21:20.565Z,0.00
2018-04-16T03:22:21.506Z,0.00
2018-04-16T03:23:26.105Z,0.00
2018-04-16T03:24:23.678Z,0.00
2018-04-16T03:25:23.001Z,0.00
2018-04-16T03:26:22.631Z,0.00
2018-04-16T03:27:22.201Z,0.00
2018-04-16T03:28:20.101Z,0.00
2018-04-16T03:29:19.456Z,0.00
2018-04-16T03:30:19.719Z,0.00
2018-04-16T03:31:20.506Z,0.00
2018-04-16T03:32:20.023Z,0.00
2018-04-16T03:33:22.175Z,0.00
2018-04-16T03:34:23.540Z,0.00
2018-04-16T03:35:23.982Z,0.00
2018-04-16T03:36:24.842Z,0.00
2018-04-16T03:37:21.551Z,0.00
2018-04-16T03:38:22.393Z,0.00
2018-04-16T03:39:20.845Z,0.00
2018-04-16T03:40:21.978Z,0.00
2018-04-16T03:41:22.226Z,0.00
2018-04-16T03:42:23.043Z,0.00
2018-04-16T03:43:20.564Z,0.00
2018-04-16T03:44:22.239Z,0.00
2018-04-16T03:45:21.435Z,0.00
2018-04-16T03:46:25.885Z,0.00
2018-04-16T03:47:24.450Z,0.00
2018-04-16T03:48:22.993Z,0.00
2018-04-16T03:49:23.894Z,0.00
2018-04-16T03:50:25.179Z,0.00
2018-04-16T03:51:23.519Z,0.00
2018-04-16T03:52:22.921Z,0.00
2018-04-16T03:53:23.701Z,0.00
2018-04-16T03:54:23.254Z,0.00
2018-04-16T03:55:23.107Z,0.00
2018-04-16T03:56:20.224Z,0.00
2018-04-16T03:57:20.713Z,0.00
2018-04-16T03:58:24.106Z,0.00
2018-04-16T03:59:21.291Z,0.00
2018-04-16T04:00:21.070Z,0.00
2018-04-16T04:01:20.360Z,0.00
2018-04-16T04:02:22.520Z,0.00
2018-04-16T04:03:21.885Z,0.00
2018-04-16T04:04:20.113Z,0.00
2018-04-16T04:05:21.386Z,0.00
2018-04-16T04:06:19.966Z,0.00
2018-04-16T04:07:21.564Z,0.00
2018-04-16T04:08:20.450Z,0.00
2018-04-16T04:09:21.758Z,0.00
2018-04-16T04:10:22.224Z,0.00
2018-04-16T04:11:21.463Z,0.00
2018-04-16T04:12:21.443Z,0.00
2018-04-16T04:13:22.075Z,0.00
2018-04-16T04:14:21.935Z,0.00
2018-04-16T04:15:19.943Z,0.00
2018-04-16T04:16:20.474Z,0.00
2018-04-16T04:17:20.503Z,0.00
2018-04-16T04:18:22.844Z,0.00
2018-04-16T04:19:21.085Z,0.00
2018-04-16T04:20:20.896Z,0.00
2018-04-16T04:21:22.588Z,0.00
2018-04-16T04:22:23.429Z,0.00
2018-04-16T04:23:20.846Z,0.00
2018-04-16T04:24:23.600Z,0.00
2018-04-16T04:25:20.881Z,0.00
2018-04-16T04:26:21.495Z,0.00
2018-04-16T04:27:19.923Z,0.00
2018-04-16T04:28:21.895Z,0.00
2018-04-16T04:29:20.505Z,0.00
2018-04-16T04:30:22.036Z,0.00
2018-04-16T04:31:21.999Z,0.00
2018-04-16T04:32:20.874Z,0.00
2018-04-16T04:33:21.041Z,5.63
2018-04-16T04:34:24.206Z,5.63
2018-04-16T04:35:21.293Z,5.63
2018-04-16T04:36:22.068Z,5.63
2018-04-16T04:37:20.499Z,5.63
2018-04-16T04:38:22.205Z,5.63
2018-04-16T04:39:20.494Z,5.63
2018-04-16T04:40:24.173Z,5.63
2018-04-16T04:41:20.695Z,5.63
2018-04-16T04:42:21.686Z,5.63
2018-04-16T04:43:20.914Z,5.63
2018-04-16T04:44:20.649Z,11.25
2018-04-16T04:45:22.973Z,11.25
2018-04-16T04:46:20.432Z,11.25
2018-04-16T04:47:20.299Z,11.25
2018-04-16T04:48:21.426Z,11.25
2018-04-16T04:49:21.357Z,11.25
2018-04-16T04:50:20.916Z,11.25
2018-04-16T04:51:21.643Z,11.25
2018-04-16T04:52:20.152Z,11.25
2018-04-16T04:53:20.795Z,11.25
2018-04-16T04:55:25.412Z,16.88
2018-04-16T04:56:23.093Z,16.88
2018-04-16T04:57:20.423Z,16.88
2018-04-16T04:58:21.239Z,16.88
2018-04-16T04:59:20.391Z,16.88
2018-04-16T05:00:21.073Z,16.88
2018-04-16T05:01:19.681Z,16.88
2018-04-16T05:02:22.092Z,22.50
2018-04-16T05:03:21.179Z,22.50
2018-04-16T05:04:19.333Z,22.50
2018-04-16T05:05:19.307Z,22.50
2018-04-16T05:06:19.429Z,22.50
2018-04-16T05:07:20.099Z,22.50
2018-04-16T05:08:19.352Z,28.13
2018-04-16T05:09:19.337Z,28.13
2018-04-16T05:10:20.917Z,28.13
2018-04-16T05:11:19.351Z,28.13
2018-04-16T05:12:19.600Z,28.13
2018-04-16T05:13:19.335Z,28.13
2018-04-16T05:14:19.379Z,33.75
2018-04-16T05:15:19.596Z,33.75
2018-04-16T05:16:19.382Z,33.75
2018-04-16T05:17:20.245Z,33.75
2018-04-16T05:18:22.340Z,39.38
2018-04-16T05:19:19.351Z,39.38
2018-04-16T05:20:19.502Z,39.38
2018-04-16T05:21:21.056Z,39.38
2018-04-16T05:23:21.483Z,45.00
2018-04-16T05:24:25.341Z,50.63
2018-04-16T05:25:20.754Z,50.63
2018-04-16T05:26:27.589Z,50.63
2018-04-16T05:27:20.527Z,56.25
2018-04-16T05:28:25.996Z,56.25
2018-04-16T05:29:19.380Z,61.88
2018-04-16T05:30:27.957Z,67.50
2018-04-16T05:31:19.389Z,73.13
2018-04-16T05:32:25.474Z,78.75
2018-04-16T05:33:19.407Z,90.00
2018-04-16T05:34:24.772Z,95.63
2018-04-16T05:35:19.446Z,106.88
2018-04-16T05:36:20.797Z,118.13
2018-04-16T05:37:19.663Z,135.00
2018-04-16T05:39:21.134Z,157.50
2018-04-16T05:40:25.250Z,163.13
2018-04-16T05:41:20.312Z,163.13
2018-04-16T05:42:19.621Z,174.38
2018-04-16T05:43:19.470Z,180.00
2018-04-16T05:45:19.410Z,196.88
2018-04-16T05:46:23.980Z,196.88
2018-04-16T05:47:24.065Z,196.88
2018-04-16T05:48:21.060Z,185.63
2018-04-16T05:49:19.518Z,191.25
2018-04-16T05:50:25.721Z,213.75
2018-04-16T05:51:24.606Z,219.38
2018-04-16T05:52:27.816Z,225.00
2018-04-16T05:54:42.119Z,225.00
2018-04-16T05:55:29.016Z,230.63
2018-04-16T05:58:02.671Z,241.88
2018-04-16T05:58:27.516Z,247.50
2018-04-16T05:59:32.434Z,253.13
2018-04-16T06:00:35.275Z,258.75
2018-04-16T06:03:31.042Z,275.63
2018-04-16T06:05:26.222Z,298.13
2018-04-16T06:06:32.609Z,309.38
2018-04-16T06:07:20.181Z,326.25
2018-04-16T06:08:26.909Z,337.50
2018-04-16T06:10:22.543Z,360.00
2018-04-16T06:11:23.078Z,354.38
2018-04-16T06:12:27.754Z,326.25
2018-04-16T06:13:28.515Z,281.25
2018-04-16T06:14:26.474Z,298.13
2018-04-16T06:15:24.071Z,326.25
2018-04-16T06:20:23.053Z,348.75
2018-04-16T06:21:20.345Z,360.00
2018-04-16T06:25:51.811Z,388.13
2018-04-16T06:26:52.613Z,376.88
2018-04-16T06:27:51.798Z,348.75
2018-04-16T06:28:51.777Z,348.75
2018-04-16T06:29:53.623Z,163.13
2018-04-16T06:30:51.783Z,163.13
2018-04-16T06:31:52.622Z,213.75
2018-04-16T06:32:52.619Z,202.50
2018-04-16T06:33:51.815Z,163.13
2018-04-16T06:34:51.931Z,180.00
2018-04-16T06:35:51.822Z,320.63
2018-04-16T06:36:51.849Z,196.88
2018-04-16T06:37:51.858Z,230.63
2018-04-16T06:38:51.844Z,241.88
2018-04-16T06:39:51.848Z,270.00
2018-04-16T06:40:51.860Z,320.63
2018-04-16T06:41:51.869Z,540.00
2018-04-16T06:42:51.947Z,562.50
2018-04-16T06:43:51.865Z,579.38
2018-04-16T06:44:51.856Z,590.63
2018-04-16T06:45:51.876Z,596.25
2018-04-16T06:46:51.928Z,601.88
2018-04-16T06:47:51.947Z,618.75
2018-04-16T06:48:51.888Z,624.38
2018-04-16T06:49:51.898Z,630.00
2018-04-16T06:50:51.909Z,646.88
2018-04-16T06:51:51.924Z,624.38
2018-04-16T06:52:51.920Z,624.38
2018-04-16T06:53:51.930Z,388.13
2018-04-16T06:54:51.931Z,433.13
2018-04-16T06:55:51.951Z,523.13
2018-04-16T06:56:51.941Z,652.50
2018-04-16T06:57:52.633Z,427.50
2018-04-16T06:58:51.973Z,495.00
2018-04-16T06:59:51.980Z,624.38
2018-04-16T07:00:52.097Z,742.50
2018-04-16T07:01:52.004Z,736.88
2018-04-16T07:02:51.995Z,641.25
2018-04-16T07:03:52.004Z,562.50
2018-04-16T07:04:52.023Z,506.25
2018-04-16T07:05:52.006Z,534.38
2018-04-16T07:06:52.020Z,680.63
2018-04-16T07:07:52.024Z,641.25
2018-04-16T07:08:52.051Z,483.75
2018-04-16T07:09:52.058Z,500.63
2018-04-16T07:10:52.050Z,630.00
2018-04-16T07:11:52.098Z,416.25
2018-04-16T07:12:52.717Z,444.38
2018-04-16T07:13:52.140Z,393.75
2018-04-16T07:14:52.116Z,393.75
2018-04-16T07:15:52.160Z,320.63
2018-04-16T07:16:52.129Z,292.50
2018-04-16T07:17:52.118Z,264.38
2018-04-16T07:18:52.106Z,253.13
2018-04-16T07:19:52.115Z,270.00
2018-04-16T07:20:52.214Z,298.13
2018-04-16T07:21:52.130Z,315.00
2018-04-16T07:22:52.151Z,326.25
2018-04-16T07:23:52.166Z,326.25
2018-04-16T07:24:52.165Z,320.63
2018-04-16T07:25:52.344Z,309.38
2018-04-16T07:26:52.175Z,298.13
2018-04-16T07:27:52.276Z,281.25
2018-04-16T07:28:52.289Z,275.63
2018-04-16T07:29:52.200Z,286.88
2018-04-16T07:30:52.206Z,298.13
2018-04-16T07:31:52.235Z,292.50
2018-04-16T07:32:52.219Z,275.63
2018-04-16T07:33:52.214Z,253.13
2018-04-16T07:34:52.231Z,247.50
2018-04-16T07:35:52.330Z,292.50
2018-04-16T07:36:52.250Z,399.38
2018-04-16T07:37:52.238Z,545.63
2018-04-16T07:38:52.248Z,646.88
2018-04-16T07:39:52.249Z,658.13
2018-04-16T07:40:52.261Z,720.00
2018-04-16T07:41:52.294Z,731.25
2018-04-16T07:42:52.264Z,765.00
2018-04-16T07:43:52.304Z,793.13
2018-04-16T07:44:52.298Z,787.50
2018-04-16T07:45:52.313Z,804.38
2018-04-16T07:46:53.160Z,838.13
2018-04-16T07:47:52.358Z,725.63
2018-04-16T07:48:52.404Z,613.13
2018-04-16T07:49:52.337Z,562.50
2018-04-16T07:50:52.367Z,472.50
2018-04-16T07:51:52.329Z,455.63
2018-04-16T07:52:52.359Z,461.25
2018-04-16T07:53:52.468Z,607.50
2018-04-16T07:54:52.521Z,489.38
2018-04-16T07:55:52.416Z,472.50
2018-04-16T07:56:53.166Z,652.50
2018-04-16T07:57:53.395Z,832.50
2018-04-16T07:58:52.531Z,810.00
2018-04-16T07:59:52.429Z,883.13
2018-04-16T08:00:52.638Z,933.75
2018-04-16T08:01:52.412Z,933.75
2018-04-16T08:02:52.447Z,939.38
2018-04-16T08:03:52.522Z,945.00
2018-04-16T08:04:52.534Z,916.88
2018-04-16T08:05:52.509Z,905.63
2018-04-16T08:06:52.529Z,911.25
2018-04-16T08:07:52.476Z,916.88
2018-04-16T08:08:52.546Z,911.25
2018-04-16T08:09:52.663Z,911.25
2018-04-16T08:10:52.518Z,961.88
2018-04-16T08:11:52.515Z,900.00
2018-04-16T08:12:52.556Z,821.25
2018-04-16T08:13:52.604Z,849.38
2018-04-16T08:14:52.569Z,928.13
2018-04-16T08:15:52.596Z,855.00
2018-04-16T08:16:52.590Z,528.75
2018-04-16T08:17:52.614Z,551.25
2018-04-16T08:18:52.710Z,551.25
2018-04-16T08:19:52.785Z,888.75
2018-04-16T08:20:52.646Z,635.63
2018-04-16T08:21:52.666Z,894.38
2018-04-16T08:22:52.652Z,984.38
2018-04-16T08:23:52.661Z,995.63
2018-04-16T08:24:52.729Z,466.88
2018-04-16T08:25:52.762Z,483.75
2018-04-16T08:26:52.707Z,1074.38
2018-04-16T08:27:52.763Z,928.13
2018-04-16T08:28:52.705Z,967.50
2018-04-16T08:29:52.731Z,590.63
2018-04-16T08:30:52.756Z,427.50
2018-04-16T08:31:53.262Z,399.38
2018-04-16T08:32:52.771Z,472.50
2018-04-16T08:33:52.786Z,461.25
2018-04-16T08:34:54.291Z,337.50
2018-04-16T08:35:52.809Z,326.25
2018-04-16T08:36:53.206Z,337.50
2018-04-16T08:37:52.871Z,410.63
2018-04-16T08:38:54.435Z,551.25
2018-04-16T08:39:52.858Z,703.13
2018-04-16T08:40:53.456Z,1147.50
2018-04-16T08:41:52.893Z,1091.25
2018-04-16T08:42:53.301Z,804.38
2018-04-16T08:43:52.961Z,528.75
2018-04-16T08:44:52.959Z,787.50
2018-04-16T08:45:53.201Z,562.50
2018-04-16T08:46:53.078Z,1113.75
2018-04-16T08:47:55.802Z,1147.50
2018-04-16T08:48:52.987Z,579.38
2018-04-16T08:49:53.670Z,551.25
2018-04-16T08:50:53.085Z,748.13
2018-04-16T08:51:53.337Z,405.00
2018-04-16T08:52:54.497Z,472.50
2018-04-16T08:54:53.023Z,1203.75
2018-04-16T08:55:53.067Z,1237.50
2018-04-16T08:56:53.042Z,489.38
2018-04-16T08:57:53.215Z,489.38
2018-04-16T08:58:53.050Z,556.88
2018-04-16T08:59:53.062Z,1344.38
2018-04-16T09:00:53.113Z,1293.75
2018-04-16T09:01:53.508Z,1220.63
2018-04-16T09:02:53.085Z,1113.75
2018-04-16T09:03:53.120Z,511.88
2018-04-16T09:04:53.108Z,1175.63
2018-04-16T09:05:53.117Z,523.13
2018-04-16T09:06:53.138Z,545.63
2018-04-16T09:07:53.151Z,461.25
2018-04-16T09:08:53.167Z,421.88
2018-04-16T09:09:53.175Z,337.50
2018-04-16T09:10:53.179Z,427.50
2018-04-16T09:11:53.203Z,646.88
2018-04-16T09:12:53.813Z,697.50
2018-04-16T09:13:53.202Z,2953.13
2018-04-16T09:14:53.225Z,1535.63
2018-04-16T09:15:53.784Z,3273.75
2018-04-16T09:16:53.243Z,483.75
2018-04-16T09:17:53.232Z,669.38
2018-04-16T09:18:53.255Z,686.25
2018-04-16T09:19:53.260Z,466.88
2018-04-16T09:20:53.400Z,1614.38
2018-04-16T09:21:53.282Z,1333.13
2018-04-16T09:22:53.336Z,2885.63
2018-04-16T09:23:53.342Z,686.25
2018-04-16T09:24:53.343Z,579.38
2018-04-16T09:25:53.408Z,843.75
2018-04-16T09:26:53.345Z,1237.50
2018-04-16T09:27:53.344Z,950.63
2018-04-16T09:28:53.923Z,416.25
2018-04-16T09:29:53.400Z,298.13
2018-04-16T09:30:53.382Z,292.50
2018-04-16T09:31:53.485Z,320.63
2018-04-16T09:32:53.427Z,551.25
2018-04-16T09:33:54.322Z,708.75
2018-04-16T09:34:53.403Z,523.13
2018-04-16T09:35:53.410Z,573.75
2018-04-16T09:36:53.479Z,641.25
2018-04-16T09:37:53.476Z,1254.38
2018-04-16T09:38:54.339Z,855.00
2018-04-16T09:39:53.462Z,1490.63
2018-04-16T09:40:53.477Z,1237.50
2018-04-16T09:41:54.321Z,1485.00
2018-04-16T09:42:53.510Z,1710.00
2018-04-16T09:43:53.520Z,990.00
2018-04-16T09:44:53.498Z,956.25
2018-04-16T09:45:53.511Z,736.88
2018-04-16T09:46:53.525Z,736.88
2018-04-16T09:47:53.540Z,1378.13
2018-04-16T09:48:53.531Z,1164.38
2018-04-16T09:49:53.546Z,1344.38
2018-04-16T09:50:53.603Z,1620.00
2018-04-16T09:51:53.576Z,2008.13
2018-04-16T09:52:53.593Z,1389.38
2018-04-16T09:53:53.594Z,793.13
2018-04-16T09:54:54.346Z,1231.88
2018-04-16T09:55:53.627Z,911.25
2018-04-16T09:56:53.636Z,849.38
2018-04-16T09:57:53.677Z,995.63
2018-04-16T09:58:53.643Z,1063.13
2018-04-16T09:59:53.687Z,1018.13
2018-04-16T10:00:53.728Z,1310.63
2018-04-16T10:01:53.672Z,1417.50
2018-04-16T10:02:53.739Z,1490.63
2018-04-16T10:03:53.797Z,1535.63
2018-04-16T10:04:53.737Z,1552.50
2018-04-16T10:05:53.717Z,2407.50
2018-04-16T10:06:54.338Z,2626.88
2018-04-16T10:07:53.736Z,3290.63
2018-04-16T10:08:53.764Z,3245.63
2018-04-16T10:09:53.875Z,3127.50
2018-04-16T10:10:53.809Z,3223.13
2018-04-16T10:11:53.799Z,3408.75
2018-04-16T10:12:53.869Z,3268.13
2018-04-16T10:13:53.824Z,3515.63
2018-04-16T10:14:53.815Z,3594.38
2018-04-16T10:15:53.832Z,3650.63
2018-04-16T10:16:53.872Z,3571.88
2018-04-16T10:17:53.875Z,3735.00
2018-04-16T10:18:53.915Z,1310.63
2018-04-16T10:19:53.956Z,562.50
2018-04-16T10:20:53.941Z,421.88
2018-04-16T10:21:53.954Z,669.38
2018-04-16T10:22:54.684Z,3487.50
2018-04-16T10:23:53.986Z,2497.50
2018-04-16T10:24:53.973Z,3279.38
2018-04-16T10:25:54.053Z,1063.13
2018-04-16T10:26:55.364Z,568.13
2018-04-16T10:27:54.031Z,483.75
2018-04-16T10:28:54.097Z,3588.75
2018-04-16T10:29:54.076Z,2581.88
2018-04-16T10:30:54.256Z,3588.75
2018-04-16T10:31:54.085Z,3751.88
2018-04-16T10:32:54.117Z,3448.13
2018-04-16T10:33:54.154Z,540.00
2018-04-16T10:34:54.161Z,3459.38
2018-04-16T10:35:54.167Z,3645.00
2018-04-16T10:36:54.169Z,3346.88
2018-04-16T10:37:54.245Z,2947.50
2018-04-16T10:38:54.200Z,528.75
2018-04-16T10:39:54.255Z,2958.75
2018-04-16T10:40:54.235Z,3138.75
2018-04-16T10:41:54.864Z,2992.50
2018-04-16T10:42:54.454Z,2632.50
2018-04-16T10:43:54.268Z,2188.13
2018-04-16T10:44:54.310Z,1743.75
2018-04-16T10:45:54.333Z,1642.50
2018-04-16T10:46:54.351Z,1721.25
2018-04-16T10:47:54.370Z,1586.25
2018-04-16T10:48:54.355Z,945.00
2018-04-16T10:49:54.370Z,601.88
2018-04-16T10:50:54.395Z,450.00
2018-04-16T10:51:54.428Z,371.25
2018-04-16T10:52:54.419Z,343.13
2018-04-16T10:53:54.467Z,444.38
2018-04-16T10:54:54.450Z,1507.50
2018-04-16T10:55:54.464Z,528.75
2018-04-16T10:56:54.509Z,455.63
2018-04-16T10:57:54.709Z,1687.50
2018-04-16T10:58:54.527Z,540.00
2018-04-16T10:59:54.521Z,495.00
2018-04-16T11:00:54.609Z,410.63
2018-04-16T11:01:54.685Z,399.38
2018-04-16T11:02:54.574Z,388.13
2018-04-16T11:03:54.595Z,337.50
2018-04-16T11:04:54.589Z,360.00
2018-04-16T11:05:54.601Z,2610.00
2018-04-16T11:06:54.613Z,2840.63
2018-04-16T11:07:54.628Z,2126.25
2018-04-16T11:08:54.644Z,973.13
2018-04-16T11:09:54.644Z,579.38
2018-04-16T11:10:54.737Z,568.13
2018-04-16T11:11:55.378Z,562.50
2018-04-16T11:12:54.787Z,472.50
2018-04-16T11:13:54.729Z,433.13
2018-04-16T11:14:54.717Z,483.75
2018-04-16T11:15:54.730Z,511.88
2018-04-16T11:16:54.745Z,427.50
2018-04-16T11:17:54.761Z,410.63
2018-04-16T11:18:54.796Z,371.25
2018-04-16T11:19:54.867Z,348.75
2018-04-16T11:20:54.826Z,343.13
2018-04-16T11:21:55.409Z,326.25
2018-04-16T11:22:54.809Z,309.38
2018-04-16T11:23:54.815Z,286.88
2018-04-16T11:24:54.837Z,281.25
2018-04-16T11:25:54.819Z,371.25
2018-04-16T11:26:54.858Z,410.63
2018-04-16T11:27:54.835Z,438.75
2018-04-16T11:28:54.866Z,421.88
2018-04-16T11:29:54.857Z,433.13
2018-04-16T11:30:54.879Z,331.88
2018-04-16T11:31:54.896Z,320.63
2018-04-16T11:32:55.084Z,348.75
2018-04-16T11:33:55.054Z,348.75
2018-04-16T11:34:54.907Z,360.00
2018-04-16T11:35:54.908Z,416.25
2018-04-16T11:36:54.917Z,410.63
2018-04-16T11:37:55.023Z,455.63
2018-04-16T11:38:54.924Z,506.25
2018-04-16T11:39:55.015Z,523.13
2018-04-16T11:40:55.897Z,478.13
2018-04-16T11:41:54.975Z,466.88
2018-04-16T11:42:55.896Z,438.75
2018-04-16T11:43:55.025Z,326.25
2018-04-16T11:44:55.910Z,343.13
2018-04-16T11:45:55.069Z,365.63
2018-04-16T11:46:55.002Z,360.00
2018-04-16T11:47:55.035Z,371.25
2018-04-16T11:48:55.064Z,388.13
2018-04-16T11:49:55.051Z,421.88
2018-04-16T11:50:55.904Z,433.13
2018-04-16T11:51:55.035Z,421.88
2018-04-16T11:52:55.063Z,416.25
2018-04-16T11:53:55.060Z,399.38
2018-04-16T11:54:55.075Z,399.38
2018-04-16T11:55:55.107Z,376.88
2018-04-16T11:56:55.096Z,337.50
2018-04-16T11:57:55.090Z,331.88
2018-04-16T11:58:55.099Z,320.63
2018-04-16T11:59:55.133Z,281.25
2018-04-16T12:00:55.299Z,298.13
2018-04-16T12:01:55.171Z,320.63
2018-04-16T12:02:55.150Z,343.13
2018-04-16T12:03:55.140Z,331.88
2018-04-16T12:04:55.135Z,365.63
2018-04-16T12:05:55.170Z,371.25
2018-04-16T12:06:55.164Z,343.13
2018-04-16T12:07:55.229Z,309.38
2018-04-16T12:08:55.193Z,292.50
2018-04-16T12:09:55.229Z,298.13
2018-04-16T12:10:55.294Z,303.75
2018-04-16T12:11:55.228Z,292.50
2018-04-16T12:12:55.217Z,309.38
2018-04-16T12:13:55.231Z,326.25
2018-04-16T12:14:55.241Z,326.25
2018-04-16T12:15:55.238Z,303.75
2018-04-16T12:16:55.222Z,331.88
2018-04-16T12:17:55.238Z,360.00
2018-04-16T12:18:55.250Z,343.13
2018-04-16T12:19:55.254Z,315.00
2018-04-16T12:20:55.319Z,320.63
2018-04-16T12:21:55.335Z,371.25
2018-04-16T12:22:55.274Z,360.00
2018-04-16T12:23:55.359Z,354.38
2018-04-16T12:24:55.323Z,343.13
2018-04-16T12:25:55.301Z,337.50
2018-04-16T12:26:55.373Z,309.38
2018-04-16T12:27:55.310Z,286.88
2018-04-16T12:28:55.313Z,298.13
2018-04-16T12:29:55.365Z,309.38
2018-04-16T12:30:55.333Z,315.00
2018-04-16T12:31:55.378Z,315.00
2018-04-16T12:32:55.335Z,331.88
2018-04-16T12:33:55.461Z,337.50
2018-04-16T12:34:55.362Z,343.13
2018-04-16T12:35:55.383Z,343.13
2018-04-16T12:36:55.369Z,331.88
2018-04-16T12:37:55.442Z,331.88
2018-04-16T12:38:55.927Z,326.25
2018-04-16T12:39:55.382Z,320.63
2018-04-16T12:40:55.393Z,286.88
2018-04-16T12:41:55.442Z,258.75
2018-04-16T12:42:55.432Z,275.63
2018-04-16T12:43:55.936Z,281.25
2018-04-16T12:44:55.444Z,298.13
2018-04-16T12:45:55.425Z,298.13
2018-04-16T12:46:55.537Z,303.75
2018-04-16T12:47:55.442Z,354.38
2018-04-16T12:48:55.483Z,382.50
2018-04-16T12:49:55.483Z,354.38
2018-04-16T12:50:55.507Z,315.00
2018-04-16T12:51:55.482Z,298.13
2018-04-16T12:52:55.522Z,298.13
2018-04-16T12:53:55.482Z,331.88
2018-04-16T12:54:55.503Z,371.25
2018-04-16T12:55:55.505Z,393.75
2018-04-16T12:56:55.594Z,371.25
2018-04-16T12:57:55.540Z,331.88
2018-04-16T12:58:55.515Z,298.13
2018-04-16T12:59:55.525Z,303.75
2018-04-16T13:00:55.567Z,292.50
2018-04-16T13:01:55.595Z,286.88
2018-04-16T13:02:55.540Z,286.88
2018-04-16T13:03:55.582Z,264.38
2018-04-16T13:04:55.563Z,247.50
2018-04-16T13:05:55.562Z,264.38
2018-04-16T13:06:55.597Z,292.50
2018-04-16T13:07:55.599Z,326.25
2018-04-16T13:08:55.583Z,354.38
2018-04-16T13:09:56.438Z,360.00